createdAt,value
2019-04-14T00:00:51.371Z,12.55
2019-04-14T00:03:39.032Z,5.60
2019-04-14T00:06:09.577Z,13.58
2019-04-14T00:08:37.904Z,10.28
2019-04-14T00:11:08.223Z,9.28
2019-04-14T00:13:37.115Z,13.48
2019-04-14T00:16:05.545Z,12.45
2019-04-14T00:18:34.309Z,9.60
2019-04-14T00:21:04.352Z,9.10
2019-04-14T00:23:33.321Z,17.87
2019-04-14T00:26:40.181Z,19.23
2019-04-14T00:29:09.253Z,11.97
2019-04-14T00:31:39.117Z,14.63
2019-04-14T00:34:27.066Z,7.55
2019-04-14T00:37:09.883Z,23.32
2019-04-14T00:39:42.226Z,11.03
2019-04-14T00:42:25.625Z,15.00
2019-04-14T00:45:39.394Z,24.00
2019-04-14T00:48:07.521Z,18.73
2019-04-14T00:50:30.365Z,11.85
2019-04-14T00:52:59.141Z,10.78
2019-04-14T00:55:27.925Z,17.60
2019-04-14T00:57:57.275Z,11.35
2019-04-14T01:00:27.540Z,10.35
2019-04-14T01:02:56.493Z,13.55
2019-04-14T01:05:26.259Z,19.12
2019-04-14T01:07:55.029Z,14.43
2019-04-14T01:10:23.578Z,14.05
2019-04-14T01:12:53.840Z,11.48
2019-04-14T01:15:22.807Z,14.68
2019-04-14T01:17:52.782Z,9.75
2019-04-14T01:20:21.789Z,16.35
2019-04-14T01:22:51.015Z,22.07
2019-04-14T01:25:19.919Z,13.80
2019-04-14T01:27:49.568Z,21.00
2019-04-14T01:30:18.423Z,11.68
2019-04-14T01:33:09.835Z,18.73
2019-04-14T01:35:39.910Z,15.53
2019-04-14T01:38:08.801Z,17.52
2019-04-14T01:40:38.069Z,17.57
2019-04-14T01:43:08.013Z,15.65
2019-04-14T01:45:38.190Z,15.40
2019-04-14T01:48:08.340Z,23.20
2019-04-14T01:50:51.861Z,19.95
2019-04-14T01:53:33.551Z,15.38
2019-04-14T01:56:10.135Z,15.60
2019-04-14T01:58:46.864Z,21.90
2019-04-14T02:01:19.703Z,17.27
2019-04-14T02:03:49.757Z,22.07
2019-04-14T02:06:18.193Z,15.58
2019-04-14T02:08:47.940Z,23.50
2019-04-14T02:11:16.890Z,20.17
2019-04-14T02:13:46.475Z,22.35
2019-04-14T02:16:25.864Z,14.43
2019-04-14T02:18:45.497Z,23.90
2019-04-14T02:21:14.940Z,20.10
2019-04-14T02:23:45.319Z,17.98
2019-04-14T02:26:15.400Z,17.57
2019-04-14T02:28:44.430Z,16.87
2019-04-14T02:31:33.339Z,18.70
2019-04-14T02:34:12.377Z,23.80
2019-04-14T02:36:50.681Z,16.23
2019-04-14T02:39:15.575Z,22.25
2019-04-14T02:41:47.069Z,30.92
2019-04-14T02:44:12.213Z,21.95
2019-04-14T02:46:49.611Z,18.95
2019-04-14T02:49:11.149Z,25.27
2019-04-14T02:51:40.065Z,21.62
2019-04-14T02:54:13.424Z,31.55
2019-04-14T02:56:45.332Z,30.95
2019-04-14T02:59:13.098Z,24.77
2019-04-14T03:01:55.344Z,20.30
2019-04-14T03:04:18.831Z,22.87
2019-04-14T03:06:50.501Z,21.73
2019-04-14T03:11:48.946Z,20.88
2019-04-14T03:14:27.746Z,19.62
2019-04-14T03:17:16.172Z,18.32
2019-04-14T03:19:57.015Z,23.18
2019-04-14T03:22:32.954Z,20.68
2019-04-14T03:25:06.281Z,27.48
2019-04-14T03:30:51.674Z,24.57
2019-04-14T03:35:58.122Z,28.83
2019-04-14T03:40:25.896Z,17.35
2019-04-14T03:43:07.597Z,26.02
2019-04-14T03:45:35.731Z,25.55
2019-04-14T03:48:31.836Z,23.35
2019-04-14T03:50:29.245Z,24.37
2019-04-14T03:53:09.622Z,24.02
2019-04-14T03:55:17.344Z,24.82
2019-04-14T03:57:34.534Z,21.97
2019-04-14T04:00:05.216Z,26.85
2019-04-14T04:02:34.072Z,28.02
2019-04-14T04:05:04.134Z,24.12
2019-04-14T04:07:32.514Z,26.68
2019-04-14T04:10:07.123Z,30.52
2019-04-14T04:12:35.997Z,33.10
2019-04-14T04:15:06.096Z,29.75
2019-04-14T04:17:42.945Z,23.40
2019-04-14T04:20:34.897Z,21.73
2019-04-14T04:23:14.782Z,21.23
2019-04-14T04:26:08.951Z,29.05
2019-04-14T04:29:15.785Z,22.35
2019-04-14T04:32:10.080Z,25.55
2019-04-14T04:35:17.285Z,23.67
2019-04-14T04:38:07.376Z,31.60
2019-04-14T04:40:37.496Z,31.23
2019-04-14T04:43:06.045Z,29.27
2019-04-14T04:45:36.871Z,18.85
2019-04-14T04:48:06.689Z,24.55
2019-04-14T04:50:38.889Z,27.95
2019-04-14T04:53:08.977Z,22.50
2019-04-14T04:55:37.909Z,24.85
2019-04-14T04:58:07.779Z,22.27
2019-04-14T05:00:37.355Z,23.42
2019-04-14T05:03:06.254Z,21.87
2019-04-14T05:05:53.556Z,30.40
2019-04-14T05:08:22.437Z,27.27
2019-04-14T05:11:03.317Z,28.77
2019-04-14T05:13:36.227Z,23.80
2019-04-14T05:16:06.237Z,21.10
2019-04-14T05:18:35.561Z,22.75
2019-04-14T05:21:04.345Z,32.17
2019-04-14T05:23:34.135Z,30.52
2019-04-14T05:26:03.201Z,26.57
2019-04-14T05:28:33.060Z,26.97
2019-04-14T05:31:03.233Z,22.60
2019-04-14T05:33:32.185Z,26.50
2019-04-14T05:36:02.120Z,27.40
2019-04-14T05:38:33.760Z,30.60
2019-04-14T05:41:02.675Z,27.75
2019-04-14T05:43:41.527Z,22.93
2019-04-14T05:46:03.384Z,27.82
2019-04-14T05:49:44.256Z,25.27
2019-04-14T05:52:07.649Z,24.92
2019-04-14T05:55:08.677Z,27.27
2019-04-14T05:57:39.490Z,22.60
2019-04-14T06:00:12.456Z,32.13
2019-04-14T06:02:42.370Z,26.10
2019-04-14T06:05:13.003Z,23.62
2019-04-14T06:07:43.446Z,24.95
2019-04-14T06:10:13.456Z,26.48
2019-04-14T06:12:43.493Z,27.77
2019-04-14T06:15:13.455Z,29.92
2019-04-14T06:17:43.329Z,27.00
2019-04-14T06:20:13.471Z,34.75
2019-04-14T06:22:43.458Z,26.10
2019-04-14T06:25:13.495Z,25.70
2019-04-14T06:27:43.576Z,33.23
2019-04-14T06:30:31.481Z,34.92
2019-04-14T06:33:04.869Z,31.30
2019-04-14T06:36:06.011Z,31.42
2019-04-14T06:38:38.262Z,24.45
2019-04-14T06:41:09.993Z,23.95
2019-04-14T06:43:48.792Z,30.85
2019-04-14T06:46:11.461Z,29.07
2019-04-14T06:48:41.318Z,34.08
2019-04-14T06:51:11.203Z,31.30
2019-04-14T06:53:41.096Z,31.30
2019-04-14T06:56:10.994Z,33.95
2019-04-14T06:58:41.113Z,37.67
2019-04-14T07:01:10.957Z,30.95
2019-04-14T07:03:40.769Z,32.20
2019-04-14T07:06:10.684Z,25.92
2019-04-14T07:08:40.544Z,35.68
2019-04-14T07:11:10.131Z,25.80
2019-04-14T07:13:40.121Z,29.50
2019-04-14T07:16:09.657Z,28.45
2019-04-14T07:18:39.601Z,27.55
2019-04-14T07:21:10.544Z,27.40
2019-04-14T07:23:40.365Z,32.00
2019-04-14T07:26:10.317Z,34.30
2019-04-14T07:28:40.295Z,30.70
2019-04-14T07:31:38.237Z,28.15
2019-04-14T07:34:36.181Z,28.55
2019-04-14T07:37:19.765Z,26.50
2019-04-14T07:40:08.655Z,27.90
2019-04-14T07:43:00.565Z,29.67
2019-04-14T07:45:37.587Z,33.45
2019-04-14T07:48:12.122Z,28.00
2019-04-14T07:50:56.335Z,31.70
2019-04-14T07:53:44.518Z,31.00
2019-04-14T07:56:27.196Z,30.27
2019-04-14T07:59:05.447Z,32.30
2019-04-14T08:01:52.977Z,22.17
2019-04-14T08:04:28.214Z,24.13
2019-04-14T08:06:59.302Z,24.03
2019-04-14T08:09:29.109Z,18.57
2019-04-14T08:11:59.564Z,16.80
2019-04-14T08:14:29.516Z,19.50
2019-04-14T08:16:59.333Z,23.47
2019-04-14T08:19:28.704Z,25.10
2019-04-14T08:21:58.472Z,25.73
2019-04-14T08:24:28.425Z,21.50
2019-04-14T08:26:58.263Z,22.00
2019-04-14T08:29:27.629Z,22.70
2019-04-14T08:31:57.354Z,19.67
2019-04-14T08:34:26.745Z,24.03
2019-04-14T08:36:56.446Z,20.60
2019-04-14T08:39:25.819Z,23.50
2019-04-14T08:42:11.212Z,22.80
2019-04-14T08:44:45.535Z,19.87
2019-04-14T08:47:46.339Z,18.23
2019-04-14T08:50:40.998Z,20.00
2019-04-14T08:53:14.122Z,19.03
2019-04-14T08:56:01.765Z,19.13
2019-04-14T08:58:37.137Z,22.40
2019-04-14T09:01:19.141Z,20.43
2019-04-14T09:04:19.812Z,23.40
2019-04-14T09:07:02.006Z,18.13
2019-04-14T09:09:38.622Z,19.90
2019-04-14T09:12:16.617Z,18.17
2019-04-14T09:14:56.400Z,15.73
2019-04-14T09:17:19.206Z,18.20
2019-04-14T09:19:48.685Z,17.70
2019-04-14T09:22:17.985Z,22.77
2019-04-14T09:24:47.858Z,18.77
2019-04-14T09:27:17.262Z,22.20
2019-04-14T09:29:47.478Z,18.37
2019-04-14T09:32:18.680Z,17.27
2019-04-14T09:34:48.087Z,19.70
2019-04-14T09:37:17.980Z,17.43
2019-04-14T09:39:48.660Z,15.70
2019-04-14T09:42:18.068Z,18.20
2019-04-14T09:44:47.297Z,17.83
2019-04-14T09:47:17.029Z,18.80
2019-04-14T09:49:46.829Z,18.17
2019-04-14T09:52:16.205Z,13.30
2019-04-14T09:54:45.961Z,22.10
2019-04-14T09:57:15.850Z,15.93
2019-04-14T09:59:45.659Z,11.83
2019-04-14T10:02:15.021Z,18.83
2019-04-14T10:04:44.877Z,21.30
2019-04-14T10:07:14.694Z,14.83
2019-04-14T10:09:44.586Z,16.00
2019-04-14T10:12:14.475Z,15.90
2019-04-14T10:14:43.831Z,16.03
2019-04-14T10:17:13.579Z,15.70
2019-04-14T10:19:43.422Z,15.13
2019-04-14T10:22:13.233Z,13.50
2019-04-14T10:24:43.196Z,13.57
2019-04-14T10:27:12.821Z,16.20
2019-04-14T10:29:42.570Z,12.97
2019-04-14T10:32:12.398Z,14.07
2019-04-14T10:34:41.922Z,12.47
2019-04-14T10:37:11.157Z,16.73
2019-04-14T10:39:40.957Z,13.20
2019-04-14T10:42:10.774Z,15.67
2019-04-14T10:44:40.585Z,21.63
2019-04-14T10:47:10.433Z,13.50
2019-04-14T10:49:40.661Z,15.67
2019-04-14T10:52:10.024Z,9.27
2019-04-14T10:54:39.254Z,13.40
2019-04-14T10:57:09.025Z,14.13
2019-04-14T10:59:38.878Z,17.53
2019-04-14T11:02:08.801Z,16.00
2019-04-14T11:04:38.669Z,14.40
2019-04-14T11:07:11.417Z,16.03
2019-04-14T11:09:41.216Z,20.33
2019-04-14T11:12:11.117Z,16.13
2019-04-14T11:14:40.937Z,12.60
2019-04-14T11:17:10.757Z,15.53
2019-04-14T11:19:40.597Z,10.13
2019-04-14T11:22:10.431Z,14.80
2019-04-14T11:24:40.313Z,19.47
2019-04-14T11:27:10.129Z,10.73
2019-04-14T11:29:39.945Z,9.83
2019-04-14T11:32:31.481Z,17.87
2019-04-14T11:35:16.473Z,12.57
2019-04-14T11:38:11.581Z,14.93
2019-04-14T11:40:44.247Z,14.27
2019-04-14T11:43:13.651Z,12.80
2019-04-14T11:45:42.886Z,13.87
2019-04-14T11:48:12.194Z,12.97
2019-04-14T11:50:41.513Z,13.17
2019-04-14T11:53:11.194Z,11.20
2019-04-14T11:55:42.906Z,12.80
2019-04-14T11:58:12.333Z,16.60
2019-04-14T12:01:10.901Z,12.57
2019-04-14T12:03:59.253Z,15.27
2019-04-14T12:07:00.470Z,14.83
2019-04-14T12:09:33.496Z,14.20
2019-04-14T12:12:04.482Z,16.97
2019-04-14T12:14:33.850Z,15.53
2019-04-14T12:17:03.864Z,15.43
2019-04-14T12:19:33.294Z,14.30
2019-04-14T12:22:08.576Z,19.13
2019-04-14T12:24:35.068Z,13.93
2019-04-14T12:27:05.068Z,19.63
2019-04-14T12:29:34.931Z,11.90
2019-04-14T12:32:04.565Z,15.40
2019-04-14T12:34:34.354Z,14.10
2019-04-14T12:37:04.434Z,13.70
2019-04-14T12:39:33.809Z,10.70
2019-04-14T12:42:28.467Z,17.53
2019-04-14T12:45:15.920Z,16.43
2019-04-14T12:48:00.862Z,12.00
2019-04-14T12:50:44.127Z,17.77
2019-04-14T12:53:14.011Z,18.73
2019-04-14T12:55:43.881Z,13.27
2019-04-14T12:58:14.946Z,12.80
2019-04-14T13:00:54.521Z,13.87
2019-04-14T13:03:25.454Z,13.97
2019-04-14T13:05:55.291Z,15.53
2019-04-14T13:08:25.138Z,15.53
2019-04-14T13:10:55.053Z,11.87
2019-04-14T13:13:24.865Z,13.03
2019-04-14T13:15:54.782Z,16.77
2019-04-14T13:18:24.593Z,15.43
2019-04-14T13:20:54.497Z,16.90
2019-04-14T13:23:24.322Z,12.13
2019-04-14T13:25:54.502Z,13.63
2019-04-14T13:28:24.382Z,13.20
2019-04-14T13:30:54.184Z,12.93
2019-04-14T13:33:24.021Z,12.60
2019-04-14T13:35:53.842Z,12.53
2019-04-14T13:38:23.977Z,12.37
2019-04-14T13:40:53.413Z,14.83
2019-04-14T13:43:23.111Z,17.33
2019-04-14T13:45:52.984Z,12.67
2019-04-14T13:48:22.832Z,11.73
2019-04-14T13:50:52.877Z,13.13
2019-04-14T13:53:22.771Z,13.23
2019-04-14T13:55:52.850Z,14.67
2019-04-14T13:58:22.663Z,12.70
2019-04-14T14:00:52.546Z,14.40
2019-04-14T14:03:22.434Z,10.13
2019-04-14T14:05:52.322Z,12.33
2019-04-14T14:08:21.691Z,13.87
2019-04-14T14:10:54.933Z,11.57
2019-04-14T14:13:39.530Z,16.13
2019-04-14T14:16:26.990Z,11.63
2019-04-14T14:19:00.821Z,14.17
2019-04-14T14:21:53.150Z,12.97
2019-04-14T14:24:40.734Z,14.63
2019-04-14T14:27:10.824Z,12.60
2019-04-14T14:29:40.177Z,12.57
2019-04-14T14:32:16.869Z,13.30
2019-04-14T14:34:46.613Z,12.10
2019-04-14T14:37:16.418Z,13.00
2019-04-14T14:39:45.789Z,11.37
2019-04-14T14:42:15.013Z,16.97
2019-04-14T14:44:49.396Z,10.37
2019-04-14T14:47:21.945Z,10.63
2019-04-14T14:50:26.041Z,12.87
2019-04-14T14:52:55.930Z,14.03
2019-04-14T14:55:25.309Z,12.60
2019-04-14T14:57:54.546Z,10.83
2019-04-14T15:00:34.033Z,13.60
2019-04-14T15:03:03.423Z,15.27
2019-04-14T15:05:32.738Z,10.40
2019-04-14T15:08:02.273Z,9.30
2019-04-14T15:10:31.503Z,13.90
2019-04-14T15:13:00.730Z,13.13
2019-04-14T15:15:29.971Z,13.00
2019-04-14T15:17:59.444Z,10.43
2019-04-14T15:20:28.685Z,12.07
2019-04-14T15:22:58.419Z,14.50
2019-04-14T15:25:28.386Z,9.00
2019-04-14T15:27:58.253Z,12.73
2019-04-14T15:30:28.073Z,10.70
2019-04-14T15:32:57.885Z,12.30
2019-04-14T15:35:27.762Z,11.87
2019-04-14T15:37:57.668Z,12.83
2019-04-14T15:40:27.501Z,15.40
2019-04-14T15:42:57.625Z,11.13
2019-04-14T15:45:27.457Z,13.63
2019-04-14T15:47:57.273Z,10.40
2019-04-14T15:50:27.173Z,9.77
2019-04-14T15:52:57.085Z,11.40
2019-04-14T15:55:26.981Z,10.63
2019-04-14T15:58:02.235Z,10.70
2019-04-14T16:00:57.250Z,11.77
2019-04-14T16:03:44.896Z,9.40
2019-04-14T16:06:51.709Z,11.23
2019-04-14T16:09:44.979Z,11.17
2019-04-14T16:12:39.634Z,16.03
2019-04-14T16:15:21.677Z,13.00
2019-04-14T16:18:02.607Z,9.37
2019-04-14T16:20:35.694Z,17.60
2019-04-14T16:23:06.344Z,10.30
2019-04-14T16:25:48.276Z,11.23
2019-04-14T16:28:35.921Z,14.47
2019-04-14T16:31:17.691Z,12.80
2019-04-14T16:34:05.383Z,13.10
2019-04-14T16:36:35.542Z,12.13
2019-04-14T16:39:06.618Z,11.93
2019-04-14T16:41:36.078Z,18.50
2019-04-14T16:44:05.456Z,14.90
2019-04-14T16:46:35.162Z,16.87
2019-04-14T16:49:05.562Z,12.53
2019-04-14T16:51:41.901Z,11.80
2019-04-14T16:54:25.229Z,11.00
2019-04-14T16:57:16.953Z,15.33
2019-04-14T16:59:46.771Z,19.13
2019-04-14T17:02:16.598Z,18.97
2019-04-14T17:04:46.428Z,15.83
2019-04-14T17:07:15.783Z,14.37
2019-04-14T17:09:45.557Z,12.37
2019-04-14T17:12:15.379Z,12.10
2019-04-14T17:15:04.368Z,16.27
2019-04-14T17:18:02.240Z,11.07
2019-04-14T17:21:09.339Z,11.73
2019-04-14T17:23:43.149Z,13.50
2019-04-14T17:26:35.164Z,13.13
2019-04-14T17:29:33.232Z,13.43
2019-04-14T17:32:31.416Z,12.20
2019-04-14T17:35:21.846Z,13.83
2019-04-14T17:38:16.908Z,14.10
2019-04-14T17:40:52.358Z,13.23
2019-04-14T17:43:34.366Z,11.50
2019-04-14T17:46:26.374Z,16.57
2019-04-14T17:49:21.112Z,15.30
2019-04-14T17:52:09.260Z,15.97
2019-04-14T17:54:58.832Z,12.83
2019-04-14T17:57:46.573Z,17.73
2019-04-14T18:00:24.461Z,16.50
2019-04-14T18:03:04.099Z,16.17
2019-04-14T18:05:43.779Z,11.87
2019-04-14T18:08:41.633Z,13.70
2019-04-14T18:11:17.472Z,17.17
2019-04-14T18:13:58.029Z,13.10
2019-04-14T18:16:46.934Z,14.53
2019-04-14T18:19:35.829Z,14.30
2019-04-14T18:22:05.289Z,14.20
2019-04-14T18:24:42.393Z,16.07
2019-04-14T18:27:06.914Z,13.17
2019-04-14T18:29:45.302Z,18.00
2019-04-14T18:32:32.006Z,12.90
2019-04-14T18:35:07.009Z,15.47
2019-04-14T18:38:05.326Z,12.47
2019-04-14T18:41:00.389Z,16.57
2019-04-14T18:43:40.492Z,14.37
2019-04-14T18:46:25.283Z,17.53
2019-04-14T18:49:09.739Z,12.77
2019-04-14T18:51:48.057Z,12.40
2019-04-14T18:54:32.402Z,14.60
2019-04-14T18:57:09.223Z,12.20
2019-04-14T19:00:03.857Z,11.17
2019-04-14T19:02:33.693Z,18.20
2019-04-14T19:05:03.061Z,21.23
2019-04-14T19:07:32.298Z,11.20
2019-04-14T19:10:01.534Z,9.20
2019-04-14T19:12:48.710Z,11.10
2019-04-14T19:15:34.009Z,17.23
2019-04-14T19:18:11.201Z,14.30
2019-04-14T19:20:43.669Z,13.20
2019-04-14T19:23:13.434Z,12.70
2019-04-14T19:25:42.807Z,12.83
2019-04-14T19:28:12.497Z,11.50
2019-04-14T19:30:42.382Z,13.47
2019-04-14T19:33:12.197Z,14.57
2019-04-14T19:35:41.655Z,13.60
2019-04-14T19:38:10.897Z,14.27
2019-04-14T19:40:40.138Z,15.20
2019-04-14T19:43:09.910Z,15.60
2019-04-14T19:45:39.718Z,13.17
2019-04-14T19:48:09.693Z,11.30
2019-04-14T19:50:39.069Z,14.43
2019-04-14T19:53:08.765Z,13.23
2019-04-14T19:55:38.578Z,15.23
2019-04-14T19:58:08.416Z,15.67
2019-04-14T20:00:38.482Z,13.60
2019-04-14T20:03:08.332Z,15.43
2019-04-14T20:05:40.478Z,16.03
2019-04-14T20:08:10.306Z,15.50
2019-04-14T20:10:40.113Z,13.07
2019-04-14T20:13:09.987Z,10.20
2019-04-14T20:15:57.363Z,16.80
2019-04-14T20:18:34.838Z,16.77
2019-04-14T20:21:21.902Z,12.60
2019-04-14T20:23:56.989Z,18.80
2019-04-14T20:26:44.874Z,11.13
2019-04-14T20:29:18.029Z,18.50
2019-04-14T20:32:09.975Z,24.30
2019-04-14T20:34:39.982Z,24.13
2019-04-14T20:37:09.865Z,25.53
2019-04-14T20:39:39.455Z,25.67
2019-04-14T20:42:09.405Z,13.90
2019-04-14T20:44:39.325Z,10.93
2019-04-14T20:47:10.130Z,21.63
2019-04-14T20:49:40.042Z,23.03
2019-04-14T20:52:10.061Z,29.37
2019-04-14T20:54:39.425Z,18.17
2019-04-14T20:57:09.181Z,16.40
2019-04-14T20:59:39.081Z,13.70
2019-04-14T21:02:46.346Z,13.50
2019-04-14T21:05:34.108Z,16.73
2019-04-14T21:08:22.035Z,14.78
2019-04-14T21:10:55.393Z,15.53
2019-04-14T21:13:39.823Z,13.58
2019-04-14T21:16:37.789Z,16.00
2019-04-14T21:19:35.517Z,19.70
2019-04-14T21:22:11.526Z,14.83
2019-04-14T21:24:48.193Z,19.12
2019-04-14T21:27:29.045Z,18.12
2019-04-14T21:30:21.030Z,15.65
2019-04-14T21:32:56.764Z,18.25
2019-04-14T21:35:48.316Z,14.35
2019-04-14T21:38:36.768Z,9.40
2019-04-14T21:41:25.641Z,9.90
2019-04-14T21:43:54.998Z,11.18
2019-04-14T21:46:24.250Z,14.95
2019-04-14T21:48:53.499Z,12.20
2019-04-14T21:51:25.037Z,13.68
2019-04-14T21:53:54.930Z,16.32
2019-04-14T21:56:26.942Z,13.05
2019-04-14T21:59:06.803Z,12.47
2019-04-14T22:01:54.840Z,11.95
2019-04-14T22:04:50.218Z,11.63
2019-04-14T22:07:37.804Z,13.72
2019-04-14T22:10:19.832Z,14.63
2019-04-14T22:12:49.685Z,11.78
2019-04-14T22:15:19.562Z,11.38
2019-04-14T22:17:48.922Z,8.73
2019-04-14T22:20:18.614Z,14.87
2019-04-14T22:22:48.505Z,18.70
2019-04-14T22:25:18.562Z,13.53
2019-04-14T22:27:48.478Z,12.60
2019-04-14T22:30:18.353Z,18.10
2019-04-14T22:32:48.186Z,12.25
2019-04-14T22:35:17.541Z,14.55
2019-04-14T22:37:47.238Z,11.45
2019-04-14T22:40:17.223Z,9.28
2019-04-14T22:42:47.045Z,14.40
2019-04-14T22:45:16.479Z,10.65
2019-04-14T22:47:46.266Z,12.28
2019-04-14T22:50:16.155Z,12.28
2019-04-14T22:52:45.525Z,11.43
2019-04-14T22:55:15.361Z,14.70
2019-04-14T22:57:45.261Z,12.00
2019-04-14T23:00:32.895Z,15.78
2019-04-14T23:03:24.873Z,20.20
2019-04-14T23:06:03.417Z,14.33
2019-04-14T23:08:44.236Z,11.88
2019-04-14T23:11:32.865Z,8.05
2019-04-14T23:14:21.361Z,13.68
2019-04-14T23:17:12.473Z,11.12
2019-04-14T23:19:46.458Z,14.75
2019-04-14T23:22:35.342Z,16.42
2019-04-14T23:25:05.889Z,12.05
2019-04-14T23:27:35.729Z,12.45
2019-04-14T23:30:06.034Z,11.55
2019-04-14T23:32:35.403Z,11.90
2019-04-14T23:35:05.717Z,14.10
2019-04-14T23:37:35.161Z,12.10
2019-04-14T23:40:05.389Z,12.53
2019-04-14T23:42:35.462Z,17.07
2019-04-14T23:45:06.422Z,11.78
2019-04-14T23:47:35.829Z,12.20
2019-04-14T23:50:05.755Z,11.12
2019-04-14T23:52:35.553Z,6.87
2019-04-14T23:55:05.849Z,12.37
2019-04-14T23:57:35.747Z,11.68
